Time;durP1;ratioP1;P1;durP2;ratioP2;P2;SDS_P1;SDS_P2;PMS_P1;PMS_P2;Temp;Humidity;BMP_temperature;BMP_pressure;BME280_temperature;BME280_humidity;BME280_pressure;Samples;Min_cycle;Max_cycle;Signal;HPM_P1;HPM_P2
2021/11/07 00:18:13;;;;;;;9.07;3.17;;;;;;;;;;5018461;27;20141;-61
2021/11/07 00:20:48;;;;;;;4.95;2.70;;;;;;;;;;4319033;33;20530;-61
2021/11/07 00:25:57;;;;;;;6.07;2.87;;;;;;;;;;4318941;33;20131;-62
2021/11/07 00:29:13;;;;;;;4.28;3.05;;;;;;;;;;4319054;33;20192;-63
2021/11/07 00:37:00;;;;;;;6.97;3.60;;;;;;;;;;4318740;33;20135;-63
2021/11/07 00:44:19;;;;;;;7.55;3.08;;;;;;;;;;4318623;33;20107;-63
2021/11/07 00:46:56;;;;;;;7.30;3.00;;;;;;;;;;4318760;33;20201;-63
2021/11/07 00:49:33;;;;;;;9.68;4.00;;;;;;;;;;4318535;33;20626;-63
2021/11/07 00:54:32;;;;;;;5.65;2.85;;;;;;;;;;4318512;33;20134;-62
2021/11/07 00:57:03;;;;;;;9.57;3.72;;;;;;;;;;4318566;33;20206;-62
2021/11/07 01:02:03;;;;;;;4.62;2.80;;;;;;;;;;4305232;33;20142;-62
2021/11/07 01:04:30;;;;;;;6.90;3.47;;;;;;;;;;4318651;33;20094;-62
2021/11/07 01:06:56;;;;;;;7.47;3.42;;;;;;;;;;4318740;33;20200;-63
2021/11/07 01:09:21;;;;;;;4.53;3.10;;;;;;;;;;4304923;33;20603;-62
2021/11/07 01:11:47;;;;;;;4.95;3.53;;;;;;;;;;4318436;33;20459;-62
2021/11/07 01:14:13;;;;;;;5.62;3.15;;;;;;;;;;4292822;33;20187;-62
2021/11/07 01:16:39;;;;;;;6.50;3.15;;;;;;;;;;4318293;33;20557;-62
2021/11/07 01:19:05;;;;;;;4.00;2.70;;;;;;;;;;4318118;33;20134;-62
2021/11/07 01:21:35;;;;;;;9.25;4.18;;;;;;;;;;4318561;33;20443;-62
2021/11/07 01:24:05;;;;;;;6.68;2.62;;;;;;;;;;4318085;33;20110;-62
2021/11/07 01:26:42;;;;;;;4.68;2.50;;;;;;;;;;4318313;33;20126;-62
2021/11/07 01:29:14;;;;;;;6.20;2.83;;;;;;;;;;4318307;33;20122;-62
2021/11/07 01:31:40;;;;;;;4.97;3.00;;;;;;;;;;4318312;33;20461;-62
2021/11/07 01:34:11;;;;;;;5.32;2.55;;;;;;;;;;4318229;33;20122;-62
2021/11/07 01:36:43;;;;;;;4.25;2.40;;;;;;;;;;4318218;33;20435;-62
2021/11/07 01:39:23;;;;;;;5.43;2.87;;;;;;;;;;4318181;33;20123;-62
2021/11/07 01:42:02;;;;;;;5.60;2.70;;;;;;;;;;4318216;33;20103;-62
2021/11/07 01:44:45;;;;;;;3.45;2.22;;;;;;;;;;4318132;33;20145;-63
2021/11/07 01:47:11;;;;;;;2.65;2.20;;;;;;;;;;4318249;33;20111;-62
2021/11/07 01:49:41;;;;;;;4.37;2.55;;;;;;;;;;4317860;33;20468;-62
2021/11/07 01:52:08;;;;;;;3.70;2.70;;;;;;;;;;4318124;33;20519;-62
2021/11/07 01:57:41;;;;;;;5.05;2.30;;;;;;;;;;4272229;33;20223;-62
2021/11/07 02:00:17;;;;;;;5.03;2.55;;;;;;;;;;4272255;33;20591;-63
2021/11/07 02:02:43;;;;;;;4.50;2.58;;;;;;;;;;4284180;33;20176;-62
2021/11/07 02:05:09;;;;;;;5.10;2.20;;;;;;;;;;4317799;33;20102;-62
2021/11/07 02:07:35;;;;;;;5.20;2.50;;;;;;;;;;4317946;33;20103;-62
2021/11/07 02:10:04;;;;;;;6.50;2.75;;;;;;;;;;4317946;33;20139;-62
2021/11/07 02:12:30;;;;;;;5.68;2.60;;;;;;;;;;4317869;33;20090;-62
2021/11/07 02:14:56;;;;;;;2.97;2.30;;;;;;;;;;4317602;33;20121;-62
2021/11/07 02:17:21;;;;;;;4.70;2.30;;;;;;;;;;4317879;33;20145;-62
2021/11/07 02:19:48;;;;;;;6.87;2.58;;;;;;;;;;4317535;33;20126;-62
2021/11/07 02:22:14;;;;;;;4.20;2.53;;;;;;;;;;4318028;33;20090;-62
2021/11/07 02:24:41;;;;;;;5.53;2.58;;;;;;;;;;4318126;33;20110;-62
2021/11/07 02:27:07;;;;;;;3.75;2.22;;;;;;;;;;4317801;33;20099;-62
2021/11/07 02:29:33;;;;;;;5.85;2.40;;;;;;;;;;4317441;33;20495;-62
2021/11/07 02:31:59;;;;;;;4.18;2.50;;;;;;;;;;4304138;33;20586;-62
2021/11/07 02:34:28;;;;;;;4.60;2.62;;;;;;;;;;4317687;33;20127;-62
2021/11/07 02:36:55;;;;;;;4.12;2.50;;;;;;;;;;4318483;33;20140;-62
2021/11/07 02:39:21;;;;;;;5.72;2.60;;;;;;;;;;4319726;33;20102;-62
2021/11/07 02:41:47;;;;;;;5.50;2.20;;;;;;;;;;4319765;33;20617;-63
2021/11/07 02:44:33;;;;;;;5.57;2.20;;;;;;;;;;4319639;33;20559;-62
2021/11/07 02:47:00;;;;;;;7.07;2.85;;;;;;;;;;4319837;33;20168;-63
2021/11/07 02:49:25;;;;;;;4.50;2.90;;;;;;;;;;4319852;33;20115;-62
2021/11/07 02:51:51;;;;;;;5.95;2.80;;;;;;;;;;4306449;33;20126;-62
2021/11/07 02:54:17;;;;;;;6.40;2.95;;;;;;;;;;4306192;33;20617;-62
2021/11/07 02:56:43;;;;;;;4.68;2.42;;;;;;;;;;4319569;33;20119;-62
2021/11/07 02:59:16;;;;;;;3.67;2.50;;;;;;;;;;4319689;33;20118;-62
2021/11/07 03:01:42;;;;;;;5.50;2.83;;;;;;;;;;4319685;33;20142;-62
2021/11/07 03:04:09;;;;;;;4.60;3.15;;;;;;;;;;4319696;33;20232;-62
2021/11/07 03:06:35;;;;;;;5.28;2.90;;;;;;;;;;4319597;33;20105;-62
2021/11/07 03:09:03;;;;;;;6.78;2.90;;;;;;;;;;4319621;33;20107;-62
2021/11/07 03:11:30;;;;;;;4.10;2.47;;;;;;;;;;4318208;33;20099;-62
2021/11/07 03:14:03;;;;;;;6.15;2.78;;;;;;;;;;4319446;33;20190;-63
2021/11/07 03:16:29;;;;;;;5.37;2.78;;;;;;;;;;4319717;33;20113;-62
2021/11/07 03:18:55;;;;;;;7.28;3.10;;;;;;;;;;4319369;33;20120;-62
2021/11/07 03:21:23;;;;;;;6.12;2.62;;;;;;;;;;4319556;33;20530;-62
2021/11/07 03:23:50;;;;;;;7.00;2.62;;;;;;;;;;4319460;33;20127;-62
2021/11/07 03:26:21;;;;;;;6.68;3.10;;;;;;;;;;4294445;33;20115;-62
2021/11/07 03:28:48;;;;;;;9.00;2.92;;;;;;;;;;4319408;33;20094;-61
2021/11/07 03:31:32;;;;;;;11.12;3.05;;;;;;;;;;4319439;33;20103;-62
2021/11/07 03:34:02;;;;;;;6.03;2.60;;;;;;;;;;4319350;33;20112;-62
2021/11/07 03:36:32;;;;;;;6.47;3.22;;;;;;;;;;4305743;33;20585;-62
2021/11/07 03:38:58;;;;;;;6.10;3.17;;;;;;;;;;4294234;33;20135;-63
2021/11/07 03:41:24;;;;;;;7.78;3.60;;;;;;;;;;4319186;33;20150;-63
2021/11/07 03:43:50;;;;;;;7.68;3.65;;;;;;;;;;4305662;33;20098;-62
2021/11/07 03:46:16;;;;;;;5.95;3.30;;;;;;;;;;4305631;33;20431;-62
2021/11/07 03:48:42;;;;;;;8.40;3.87;;;;;;;;;;4318107;33;20525;-62
2021/11/07 03:51:12;;;;;;;6.97;3.47;;;;;;;;;;4319349;33;20123;-61
2021/11/07 03:53:38;;;;;;;5.90;2.72;;;;;;;;;;4319020;33;20118;-62
2021/11/07 03:56:04;;;;;;;7.82;3.37;;;;;;;;;;4319058;33;20096;-62
2021/11/07 03:58:30;;;;;;;6.28;3.40;;;;;;;;;;4318951;33;20186;-61
2021/11/07 04:00:56;;;;;;;4.97;3.22;;;;;;;;;;4319287;33;20521;-63
2021/11/07 04:03:22;;;;;;;7.25;3.90;;;;;;;;;;4319017;33;20485;-62
2021/11/07 04:05:48;;;;;;;5.70;3.42;;;;;;;;;;4318944;33;20114;-62
2021/11/07 04:08:13;;;;;;;6.30;3.20;;;;;;;;;;4315509;33;20119;-61
2021/11/07 04:10:39;;;;;;;7.53;3.87;;;;;;;;;;4300202;33;20218;-62
2021/11/07 04:13:05;;;;;;;5.97;3.30;;;;;;;;;;4290967;33;20215;-62
2021/11/07 04:15:32;;;;;;;6.90;3.20;;;;;;;;;;4304397;33;20114;-62
2021/11/07 04:17:58;;;;;;;3.95;2.97;;;;;;;;;;4304466;33;20127;-62
2021/11/07 04:20:24;;;;;;;6.60;3.30;;;;;;;;;;4291090;33;20200;-62
2021/11/07 04:22:50;;;;;;;6.62;3.45;;;;;;;;;;4304326;33;20593;-62
2021/11/07 04:25:16;;;;;;;6.37;3.40;;;;;;;;;;4304329;33;20091;-62
2021/11/07 04:27:42;;;;;;;5.72;3.10;;;;;;;;;;4304247;33;20092;-61
2021/11/07 04:30:08;;;;;;;9.63;3.00;;;;;;;;;;4304394;33;20185;-62
2021/11/07 04:32:34;;;;;;;5.43;3.20;;;;;;;;;;4290860;33;20102;-62
2021/11/07 04:35:00;;;;;;;7.90;3.20;;;;;;;;;;4304259;33;20127;-62
2021/11/07 04:37:27;;;;;;;6.12;3.20;;;;;;;;;;4290779;33;20217;-62
2021/11/07 04:39:53;;;;;;;5.32;2.87;;;;;;;;;;4290957;33;20179;-62
2021/11/07 04:42:20;;;;;;;6.00;3.28;;;;;;;;;;4304176;33;20107;-62
2021/11/07 04:44:45;;;;;;;6.82;3.83;;;;;;;;;;4290819;33;20100;-62
2021/11/07 04:47:11;;;;;;;5.78;3.97;;;;;;;;;;4303972;33;20179;-62
2021/11/07 04:49:40;;;;;;;11.80;4.57;;;;;;;;;;4297206;33;20128;-62
2021/11/07 04:52:06;;;;;;;9.93;5.82;;;;;;;;;;4300316;33;20084;-62
2021/11/07 04:54:32;;;;;;;13.05;5.78;;;;;;;;;;4288214;33;20114;-62
2021/11/07 04:56:58;;;;;;;11.30;7.22;;;;;;;;;;4296790;33;20513;-62
2021/11/07 04:59:24;;;;;;;16.00;6.40;;;;;;;;;;4303700;33;20126;-63
2021/11/07 05:01:51;;;;;;;13.50;7.45;;;;;;;;;;4290474;33;20194;-62
2021/11/07 05:04:17;;;;;;;10.70;6.43;;;;;;;;;;4303853;33;20178;-63
2021/11/07 05:06:43;;;;;;;13.73;6.40;;;;;;;;;;4302770;33;20412;-64
2021/11/07 05:09:09;;;;;;;16.33;7.03;;;;;;;;;;4304103;33;20475;-63
2021/11/07 05:11:35;;;;;;;11.07;6.22;;;;;;;;;;4303911;33;20099;-63
2021/11/07 05:14:01;;;;;;;10.90;6.05;;;;;;;;;;4304100;33;20123;-62
2021/11/07 05:16:27;;;;;;;11.30;6.25;;;;;;;;;;4303805;33;20593;-62
2021/11/07 05:18:54;;;;;;;13.85;7.55;;;;;;;;;;4266435;33;20092;-63
2021/11/07 05:21:22;;;;;;;11.00;5.55;;;;;;;;;;4303832;33;20088;-63
2021/11/07 05:23:48;;;;;;;7.45;4.80;;;;;;;;;;4289469;33;20128;-63
2021/11/07 05:26:14;;;;;;;10.88;5.68;;;;;;;;;;4291086;33;20115;-63
2021/11/07 05:28:39;;;;;;;10.50;5.85;;;;;;;;;;4296581;33;20194;-63
2021/11/07 05:31:05;;;;;;;7.07;4.20;;;;;;;;;;4295215;33;20116;-63
2021/11/07 05:33:31;;;;;;;10.27;5.12;;;;;;;;;;4289223;33;20119;-64
2021/11/07 05:35:58;;;;;;;6.90;5.20;;;;;;;;;;4275816;33;20127;-63
2021/11/07 05:38:24;;;;;;;6.32;4.78;;;;;;;;;;4289240;33;20197;-63
2021/11/07 05:40:51;;;;;;;12.10;6.68;;;;;;;;;;4289125;33;20132;-64
2021/11/07 05:43:17;;;;;;;10.90;7.05;;;;;;;;;;4288743;33;20290;-63
2021/11/07 05:45:42;;;;;;;12.75;6.10;;;;;;;;;;4289136;33;20535;-63
2021/11/07 05:48:08;;;;;;;11.20;6.20;;;;;;;;;;4288618;33;20132;-62
2021/11/07 05:50:35;;;;;;;9.57;5.28;;;;;;;;;;4286298;33;20231;-64
2021/11/07 05:53:01;;;;;;;9.43;4.97;;;;;;;;;;4271836;33;20174;-63
2021/11/07 05:55:27;;;;;;;9.73;4.50;;;;;;;;;;4288839;33;20123;-63
2021/11/07 05:57:53;;;;;;;5.40;3.60;;;;;;;;;;4291844;33;20214;-63
2021/11/07 06:00:19;;;;;;;6.25;4.20;;;;;;;;;;4290873;33;20331;-63
2021/11/07 06:02:46;;;;;;;7.15;5.28;;;;;;;;;;4286863;33;20189;-69
2021/11/07 06:05:13;;;;;;;7.18;4.80;;;;;;;;;;4275352;33;20119;-67
2021/11/07 06:07:39;;;;;;;5.45;3.55;;;;;;;;;;4283655;33;20112;-68
2021/11/07 06:10:05;;;;;;;7.30;4.50;;;;;;;;;;4288779;33;20099;-68
2021/11/07 06:12:31;;;;;;;7.15;4.15;;;;;;;;;;4288130;33;20092;-67
2021/11/07 06:14:56;;;;;;;6.15;4.03;;;;;;;;;;4275667;33;20102;-69
2021/11/07 06:17:22;;;;;;;6.80;4.00;;;;;;;;;;4288662;33;20123;-69
2021/11/07 06:19:48;;;;;;;8.18;3.83;;;;;;;;;;4288547;33;20121;-71
2021/11/07 06:22:14;;;;;;;7.97;3.92;;;;;;;;;;4288672;33;20148;-71
2021/11/07 06:24:40;;;;;;;9.52;3.72;;;;;;;;;;4299784;33;20205;-72
2021/11/07 06:27:07;;;;;;;9.88;4.37;;;;;;;;;;4277780;33;20103;-72
2021/11/07 06:29:33;;;;;;;8.35;4.10;;;;;;;;;;4289320;33;20111;-71
2021/11/07 06:31:59;;;;;;;9.07;5.12;;;;;;;;;;4303206;33;20217;-72
2021/11/07 06:34:25;;;;;;;10.18;4.72;;;;;;;;;;4302589;33;20146;-63
2021/11/07 06:36:51;;;;;;;8.13;4.37;;;;;;;;;;4298457;33;20088;-68
2021/11/07 06:39:17;;;;;;;7.37;4.75;;;;;;;;;;4289240;33;20210;-68
2021/11/07 06:41:44;;;;;;;7.85;4.20;;;;;;;;;;4289764;33;20265;-72
2021/11/07 06:44:14;;;;;;;6.43;4.15;;;;;;;;;;4289421;33;20205;-68
2021/11/07 06:46:40;;;;;;;6.60;3.87;;;;;;;;;;4302658;33;20092;-72
2021/11/07 06:49:10;;;;;;;6.32;4.03;;;;;;;;;;4289255;33;20198;-70
2021/11/07 06:51:38;;;;;;;10.60;4.30;;;;;;;;;;4286825;33;20125;-71
2021/11/07 06:54:04;;;;;;;8.98;4.25;;;;;;;;;;4288246;33;20103;-70
2021/11/07 06:56:31;;;;;;;8.57;4.43;;;;;;;;;;4288058;33;20164;-70
2021/11/07 06:58:57;;;;;;;6.53;4.37;;;;;;;;;;4262339;33;20200;-70
2021/11/07 07:01:23;;;;;;;7.20;4.53;;;;;;;;;;4273681;33;20484;-68
2021/11/07 07:03:49;;;;;;;5.25;3.45;;;;;;;;;;4286725;33;20654;-69
2021/11/07 07:06:15;;;;;;;6.90;3.72;;;;;;;;;;4286955;33;20120;-69
2021/11/07 07:08:53;;;;;;;10.40;3.92;;;;;;;;;;4286612;33;20099;-69
2021/11/07 07:12:03;;;;;;;8.70;4.55;;;;;;;;;;4288034;33;20194;-69
2021/11/07 07:29:59;;;;;;;5.30;4.50;;;;;;;;;;4304708;33;20139;-69
2021/11/07 07:35:07;;;;;;;7.32;3.95;;;;;;;;;;4304230;33;20131;-70
2021/11/07 07:37:32;;;;;;;7.75;4.50;;;;;;;;;;4291083;33;20443;-70
2021/11/07 07:39:59;;;;;;;5.57;3.78;;;;;;;;;;4290832;33;20222;-71
2021/11/07 07:42:25;;;;;;;9.43;4.70;;;;;;;;;;4289856;33;20114;-70
2021/11/07 07:44:52;;;;;;;4.82;3.80;;;;;;;;;;4278496;33;20099;-69
2021/11/07 07:47:18;;;;;;;5.68;3.53;;;;;;;;;;4304815;33;20103;-71
2021/11/07 07:49:44;;;;;;;7.82;3.90;;;;;;;;;;4304222;33;20152;-71
2021/11/07 07:52:11;;;;;;;5.25;3.65;;;;;;;;;;4304531;33;20096;-71
2021/11/07 07:54:37;;;;;;;6.10;3.50;;;;;;;;;;4279212;33;20123;-70
2021/11/07 07:57:03;;;;;;;4.90;3.50;;;;;;;;;;4304485;33;20110;-68
2021/11/07 07:59:29;;;;;;;4.95;3.40;;;;;;;;;;4304114;33;20213;-69
2021/11/07 08:01:58;;;;;;;6.65;3.40;;;;;;;;;;4304207;33;20203;-68
2021/11/07 08:04:24;;;;;;;5.62;3.55;;;;;;;;;;4304517;33;20150;-69
2021/11/07 08:06:50;;;;;;;5.53;3.67;;;;;;;;;;4299352;33;20133;-68
2021/11/07 08:09:15;;;;;;;4.12;3.53;;;;;;;;;;4302370;33;20522;-69
2021/11/07 08:11:42;;;;;;;4.45;2.92;;;;;;;;;;4302164;33;20293;-70
2021/11/07 08:14:08;;;;;;;5.53;3.37;;;;;;;;;;4301826;33;20500;-70
2021/11/07 08:16:35;;;;;;;3.92;3.45;;;;;;;;;;4277167;33;20228;-70
2021/11/07 08:19:01;;;;;;;4.22;3.10;;;;;;;;;;4302459;33;20108;-70
2021/11/07 08:21:30;;;;;;;4.32;2.95;;;;;;;;;;4277454;33;20131;-67
2021/11/07 08:23:56;;;;;;;3.85;3.35;;;;;;;;;;4302584;33;20115;-69
2021/11/07 08:26:22;;;;;;;4.37;3.50;;;;;;;;;;4304039;33;20095;-67
2021/11/07 08:28:48;;;;;;;6.10;4.07;;;;;;;;;;4303734;33;20095;-68
2021/11/07 08:31:23;;;;;;;7.40;4.90;;;;;;;;;;4304204;33;20087;-68
2021/11/07 08:33:50;;;;;;;3.53;2.85;;;;;;;;;;4303249;33;20541;-68
2021/11/07 08:36:35;;;;;;;4.75;3.22;;;;;;;;;;4304188;33;20422;-68
2021/11/07 08:39:08;;;;;;;4.95;2.92;;;;;;;;;;4303663;33;20197;-69
2021/11/07 08:41:34;;;;;;;6.07;3.30;;;;;;;;;;4304112;33;20115;-69
2021/11/07 09:00:24;;;;;;;3.58;3.10;;;;;;;;;;4292382;33;20306;-69
2021/11/07 09:05:19;;;;;;;4.10;2.80;;;;;;;;;;4303517;33;20088;-69
2021/11/07 09:08:00;;;;;;;6.70;3.60;;;;;;;;;;4303827;33;20107;-69
2021/11/07 09:10:28;;;;;;;6.15;2.95;;;;;;;;;;4302807;33;20098;-68
2021/11/07 09:12:54;;;;;;;4.40;2.90;;;;;;;;;;4289905;33;20193;-68
2021/11/07 09:15:21;;;;;;;5.07;3.40;;;;;;;;;;4303499;33;20534;-69
2021/11/07 09:17:48;;;;;;;2.47;2.28;;;;;;;;;;4303509;33;20653;-70
2021/11/07 09:20:19;;;;;;;4.12;2.50;;;;;;;;;;4303646;33;20091;-70
2021/11/07 09:22:53;;;;;;;2.53;1.85;;;;;;;;;;4290821;33;20123;-69
2021/11/07 09:25:28;;;;;;;7.90;1.83;;;;;;;;;;4291248;33;20174;-71
2021/11/07 09:27:58;;;;;;;4.60;2.87;;;;;;;;;;4303367;33;20179;-71
2021/11/07 09:30:34;;;;;;;4.00;2.55;;;;;;;;;;4303624;33;20391;-69
2021/11/07 09:35:42;;;;;;;5.00;2.17;;;;;;;;;;4290289;33;20073;-69
2021/11/07 09:38:23;;;;;;;3.03;2.00;;;;;;;;;;4302095;33;20121;-71
2021/11/07 09:41:08;;;;;;;2.37;2.12;;;;;;;;;;4301433;33;20122;-73
2021/11/07 09:48:44;;;;;;;2.47;1.55;;;;;;;;;;4303143;33;20096;-74
2021/11/07 09:51:18;;;;;;;3.30;2.30;;;;;;;;;;4290013;33;20526;-68
2021/11/07 09:53:45;;;;;;;1.75;1.65;;;;;;;;;;4301936;33;20131;-69
2021/11/07 09:56:11;;;;;;;3.90;2.55;;;;;;;;;;4288714;33;20210;-67
2021/11/07 09:58:41;;;;;;;3.67;2.47;;;;;;;;;;4302977;33;20103;-66
2021/11/07 10:01:07;;;;;;;4.03;2.37;;;;;;;;;;4301468;33;20111;-67
2021/11/07 10:03:34;;;;;;;1.80;1.70;;;;;;;;;;4282364;33;20251;-66
2021/11/07 10:06:03;;;;;;;4.78;2.50;;;;;;;;;;4294957;33;20097;-66
2021/11/07 10:08:30;;;;;;;2.15;1.90;;;;;;;;;;4293250;33;20190;-66
2021/11/07 10:13:24;;;;;;;3.65;2.42;;;;;;;;;;4270695;33;20109;-67
2021/11/07 10:16:05;;;;;;;3.60;2.40;;;;;;;;;;4294920;33;20117;-66
2021/11/07 10:18:43;;;;;;;2.22;1.90;;;;;;;;;;4295115;33;20100;-67
2021/11/07 10:21:17;;;;;;;2.50;1.70;;;;;;;;;;4296152;33;20719;-67
2021/11/07 10:23:47;;;;;;;2.53;2.03;;;;;;;;;;4300673;33;20109;-68
2021/11/07 10:26:26;;;;;;;3.03;1.95;;;;;;;;;;4262410;33;20111;-67
2021/11/07 10:28:55;;;;;;;2.75;2.30;;;;;;;;;;4287339;33;20217;-68
2021/11/07 10:31:26;;;;;;;2.30;2.00;;;;;;;;;;4288483;33;20130;-67
2021/11/07 10:34:16;;;;;;;7.28;2.00;;;;;;;;;;4288125;33;20088;-67
2021/11/07 10:37:20;;;;;;;7.03;2.37;;;;;;;;;;4287854;33;20552;-68
2021/11/07 10:52:03;;;;;;;5.82;2.80;;;;;;;;;;4289660;33;20114;-69
2021/11/07 10:54:32;;;;;;;3.87;3.10;;;;;;;;;;4292259;33;20111;-69
2021/11/07 10:57:15;;;;;;;4.07;3.15;;;;;;;;;;4269627;33;20428;-69
2021/11/07 10:59:43;;;;;;;3.25;2.72;;;;;;;;;;4302772;33;20120;-71
2021/11/07 11:02:34;;;;;;;4.60;3.10;;;;;;;;;;4290262;33;20670;-70
2021/11/07 11:05:02;;;;;;;3.35;2.80;;;;;;;;;;4297732;33;20494;-68
2021/11/07 11:07:29;;;;;;;4.32;2.30;;;;;;;;;;4304523;33;20084;-72
2021/11/07 11:10:21;;;;;;;3.10;2.50;;;;;;;;;;4290091;33;20197;-64
2021/11/07 11:13:22;;;;;;;4.22;2.62;;;;;;;;;;4297295;33;20122;-68
2021/11/07 11:18:53;;;;;;;3.60;2.22;;;;;;;;;;4304601;33;20233;-66
2021/11/07 11:26:29;;;;;;;3.75;2.83;;;;;;;;;;4293497;33;20412;-68
2021/11/07 11:32:04;;;;;;;2.67;2.45;;;;;;;;;;4281712;33;20172;-65
2021/11/07 11:34:38;;;;;;;6.30;3.37;;;;;;;;;;4297797;33;20099;-67
2021/11/07 11:37:18;;;;;;;3.50;2.33;;;;;;;;;;4292884;33;20200;-69
2021/11/07 11:39:50;;;;;;;4.57;2.67;;;;;;;;;;4302679;33;20111;-68
2021/11/07 11:42:21;;;;;;;4.47;2.85;;;;;;;;;;4271366;33;20606;-69
2021/11/07 11:44:50;;;;;;;2.87;2.55;;;;;;;;;;4276675;33;20139;-68
2021/11/07 11:58:12;;;;;;;3.42;3.00;;;;;;;;;;4298140;33;20124;-67
2021/11/07 12:00:51;;;;;;;3.22;2.92;;;;;;;;;;4294731;33;20170;-69
2021/11/07 12:03:43;;;;;;;5.03;4.50;;;;;;;;;;4291475;33;20128;-69
2021/11/07 12:06:25;;;;;;;8.43;5.45;;;;;;;;;;4295884;33;20112;-68
2021/11/07 12:09:28;;;;;;;4.87;3.00;;;;;;;;;;4287294;33;20103;-71
2021/11/07 12:12:06;;;;;;;3.00;2.35;;;;;;;;;;4282921;33;20823;-68
2021/11/07 12:14:57;;;;;;;5.93;2.90;;;;;;;;;;4286417;33;20095;-68
2021/11/07 12:17:31;;;;;;;2.67;2.47;;;;;;;;;;4297705;33;20087;-67
2021/11/07 12:19:57;;;;;;;4.20;2.62;;;;;;;;;;4294974;33;20119;-68
2021/11/07 12:22:33;;;;;;;3.22;2.87;;;;;;;;;;4296389;33;20150;-68
2021/11/07 12:25:10;;;;;;;4.45;3.10;;;;;;;;;;4294656;33;20262;-67
2021/11/07 12:27:49;;;;;;;4.72;3.05;;;;;;;;;;4286683;33;20092;-71
2021/11/07 12:30:23;;;;;;;5.53;4.20;;;;;;;;;;4286848;33;20119;-72
2021/11/07 12:32:59;;;;;;;4.45;2.70;;;;;;;;;;4296848;33;20111;-69
2021/11/07 12:35:33;;;;;;;3.92;2.28;;;;;;;;;;4291762;33;20514;-71
2021/11/07 12:41:18;;;;;;;2.85;2.30;;;;;;;;;;4289773;33;20209;-70
2021/11/07 12:43:45;;;;;;;4.45;2.60;;;;;;;;;;4289647;33;20467;-71
2021/11/07 12:46:19;;;;;;;2.40;2.20;;;;;;;;;;4288165;33;20115;-72
2021/11/07 12:48:47;;;;;;;3.78;2.30;;;;;;;;;;4298256;33;20108;-72
2021/11/07 12:51:36;;;;;;;3.78;2.60;;;;;;;;;;4304421;33;20089;-71
2021/11/07 12:54:13;;;;;;;3.62;2.37;;;;;;;;;;4303727;33;20190;-73
2021/11/07 12:56:52;;;;;;;2.33;2.00;;;;;;;;;;4303902;33;20099;-74
2021/11/07 12:59:21;;;;;;;2.70;2.22;;;;;;;;;;4303947;33;20746;-70
2021/11/07 13:02:05;;;;;;;2.25;2.03;;;;;;;;;;4304072;33;20119;-71
2021/11/07 13:04:43;;;;;;;5.40;2.08;;;;;;;;;;4302736;33;20107;-72
2021/11/07 13:07:12;;;;;;;2.90;2.20;;;;;;;;;;4289403;33;20259;-72
2021/11/07 13:09:43;;;;;;;2.83;2.25;;;;;;;;;;4289654;33;20085;-70
2021/11/07 13:23:24;;;;;;;3.20;2.20;;;;;;;;;;4288746;33;20219;-73
2021/11/07 13:31:28;;;;;;;5.95;2.05;;;;;;;;;;4288887;33;20190;-69
2021/11/07 13:33:51;;;;;;;2.65;2.15;;;;;;;;;;4288854;33;20123;-70
2021/11/07 13:36:18;;;;;;;2.15;1.95;;;;;;;;;;4288937;33;20543;-70
2021/11/07 13:38:50;;;;;;;4.55;2.20;;;;;;;;;;4291980;33;20125;-71
2021/11/07 13:41:23;;;;;;;2.80;2.00;;;;;;;;;;4277573;33;20460;-72
2021/11/07 13:44:23;;;;;;;2.40;2.00;;;;;;;;;;4289735;33;20158;-71
2021/11/07 13:46:50;;;;;;;5.10;2.40;;;;;;;;;;4279418;33;20091;-71
2021/11/07 13:49:16;;;;;;;6.78;2.40;;;;;;;;;;4280409;33;20122;-71
2021/11/07 13:51:54;;;;;;;4.65;2.47;;;;;;;;;;4290148;33;20535;-71
2021/11/07 13:54:21;;;;;;;2.62;2.05;;;;;;;;;;4302394;33;20108;-71
2021/11/07 13:56:47;;;;;;;3.85;1.80;;;;;;;;;;4277693;33;20079;-72
2021/11/07 13:59:32;;;;;;;4.07;1.90;;;;;;;;;;4280855;33;20103;-70
2021/11/07 14:01:59;;;;;;;2.03;1.83;;;;;;;;;;4288667;33;20120;-70
2021/11/07 14:04:24;;;;;;;2.17;1.90;;;;;;;;;;4274794;33;20488;-70
2021/11/07 14:06:50;;;;;;;2.00;1.60;;;;;;;;;;4295779;33;20170;-69
2021/11/07 14:09:18;;;;;;;4.07;2.08;;;;;;;;;;4293554;33;20127;-72
2021/11/07 14:11:48;;;;;;;5.93;1.80;;;;;;;;;;4275044;33;20086;-70
2021/11/07 14:14:16;;;;;;;2.10;1.55;;;;;;;;;;4288247;33;20092;-70
2021/11/07 14:16:55;;;;;;;2.53;1.60;;;;;;;;;;4288064;33;20111;-71
2021/11/07 14:19:21;;;;;;;2.47;1.73;;;;;;;;;;4288031;33;20131;-69
2021/11/07 14:21:50;;;;;;;4.93;1.90;;;;;;;;;;4262759;33;20530;-69
2021/11/07 14:26:53;;;;;;;2.85;1.40;;;;;;;;;;4290407;33;20096;-71
2021/11/07 14:34:56;;;;;;;2.28;1.73;;;;;;;;;;4276808;33;20179;-70
2021/11/07 14:37:28;;;;;;;2.15;1.42;;;;;;;;;;4266978;33;20210;-70
2021/11/07 14:40:03;;;;;;;1.50;1.40;;;;;;;;;;4275205;33;20120;-72
2021/11/07 14:42:38;;;;;;;2.10;1.95;;;;;;;;;;4288946;33;20534;-73
2021/11/07 14:45:23;;;;;;;2.40;1.62;;;;;;;;;;4289923;33;20110;-73
2021/11/07 14:53:41;;;;;;;3.42;2.00;;;;;;;;;;4290456;33;20119;-73
2021/11/07 14:56:23;;;;;;;3.28;1.83;;;;;;;;;;4290232;33;20107;-72
2021/11/07 14:59:42;;;;;;;3.30;1.67;;;;;;;;;;4290583;33;20165;-72
2021/11/07 15:04:23;;;;;;;2.25;1.42;;;;;;;;;;4290583;33;20194;-73
2021/11/07 15:09:55;;;;;;;2.90;1.50;;;;;;;;;;4276903;33;20099;-70
2021/11/07 15:18:38;;;;;;;3.20;1.48;;;;;;;;;;4263479;33;20103;-70
2021/11/07 15:21:19;;;;;;;3.65;1.52;;;;;;;;;;4304284;33;20110;-72
2021/11/07 15:23:45;;;;;;;3.53;1.95;;;;;;;;;;4282443;33;20423;-69
2021/11/07 15:26:36;;;;;;;9.27;3.20;;;;;;;;;;4304717;33;20214;-69
2021/11/07 15:29:21;;;;;;;10.77;4.12;;;;;;;;;;4304647;33;20118;-70
2021/11/07 15:31:58;;;;;;;11.93;5.03;;;;;;;;;;4256647;33;20111;-70
2021/11/07 15:34:32;;;;;;;14.35;6.12;;;;;;;;;;4280237;33;20197;-70
2021/11/07 15:36:58;;;;;;;10.95;3.35;;;;;;;;;;4304533;33;20092;-70
2021/11/07 15:39:26;;;;;;;5.12;2.95;;;;;;;;;;4278442;33;20191;-71
2021/11/07 15:42:09;;;;;;;6.53;2.85;;;;;;;;;;4253017;33;20112;-71
2021/11/07 15:44:44;;;;;;;7.32;3.08;;;;;;;;;;4288907;33;20119;-72
2021/11/07 15:47:11;;;;;;;8.97;2.73;;;;;;;;;;4304080;33;20106;-71
2021/11/07 15:49:40;;;;;;;11.73;3.83;;;;;;;;;;4304223;33;20111;-72
2021/11/07 15:52:18;;;;;;;7.72;3.58;;;;;;;;;;4288882;33;20136;-73
2021/11/07 15:55:33;;;;;;;9.50;5.57;;;;;;;;;;4276098;33;20670;-73
2021/11/07 15:57:50;;;;;;;20.90;5.50;;;;;;;;;;4289325;33;20562;-72
2021/11/07 16:02:48;;;;;;;10.75;3.42;;;;;;;;;;4288168;33;20197;-71
2021/11/07 16:08:41;;;;;;;11.98;4.40;;;;;;;;;;4302686;33;20515;-71
2021/11/07 16:13:18;;;;;;;14.82;5.82;;;;;;;;;;4302234;33;20148;-72
2021/11/07 16:18:16;;;;;;;15.80;7.45;;;;;;;;;;4301841;33;20395;-72
2021/11/07 16:20:43;;;;;;;10.88;5.60;;;;;;;;;;4302461;33;20108;-73
2021/11/07 16:23:10;;;;;;;29.10;12.48;;;;;;;;;;4302781;33;20221;-69
2021/11/07 16:25:36;;;;;;;27.50;12.50;;;;;;;;;;4304056;33;20103;-72
2021/11/07 16:28:03;;;;;;;22.65;9.50;;;;;;;;;;4303341;33;20115;-71
2021/11/07 16:30:30;;;;;;;20.65;9.05;;;;;;;;;;4303921;33;20176;-71
2021/11/07 16:33:41;;;;;;;27.08;9.68;;;;;;;;;;4303721;33;20106;-73
2021/11/07 16:35:48;;;;;;;20.80;9.60;;;;;;;;;;4301243;33;20452;-71
2021/11/07 16:41:03;;;;;;;27.13;11.00;;;;;;;;;;4289861;33;20171;-71
2021/11/07 16:43:29;;;;;;;26.62;8.80;;;;;;;;;;4289844;33;20114;-74
2021/11/07 16:45:59;;;;;;;26.30;8.98;;;;;;;;;;4276507;33;20107;-73
2021/11/07 16:48:25;;;;;;;20.80;7.93;;;;;;;;;;4287432;33;20104;-72
2021/11/07 16:51:02;;;;;;;21.62;9.32;;;;;;;;;;4302858;33;20207;-72
2021/11/07 16:53:32;;;;;;;6.75;3.47;;;;;;;;;;4278258;33;20550;-71
2021/11/07 16:56:04;;;;;;;8.32;3.65;;;;;;;;;;4275926;33;20192;-70
2021/11/07 17:01:21;;;;;;;6.82;2.87;;;;;;;;;;4289595;33;20487;-70
2021/11/07 17:03:51;;;;;;;5.82;2.20;;;;;;;;;;4276731;33;20127;-70
2021/11/07 17:11:51;;;;;;;3.33;2.20;;;;;;;;;;4229790;33;20233;-69
2021/11/07 17:14:17;;;;;;;6.10;2.17;;;;;;;;;;4218242;33;20219;-69
2021/11/07 17:16:50;;;;;;;7.10;2.05;;;;;;;;;;4259527;33;20194;-69
2021/11/07 17:19:20;;;;;;;10.30;2.08;;;;;;;;;;4288988;33;20079;-69
2021/11/07 17:27:00;;;;;;;10.67;2.27;;;;;;;;;;4289264;33;20080;-70
2021/11/07 17:29:29;;;;;;;11.38;2.33;;;;;;;;;;4288903;33;20205;-69
2021/11/07 17:32:08;;;;;;;2.05;1.70;;;;;;;;;;4264629;33;20189;-74
2021/11/07 17:37:08;;;;;;;4.53;1.60;;;;;;;;;;4289024;33;20116;-69
2021/11/07 17:39:56;;;;;;;2.83;1.77;;;;;;;;;;4293726;33;20102;-69
2021/11/07 17:56:04;;;;;;;2.92;1.58;;;;;;;;;;4277804;33;20107;-68
2021/11/07 17:58:31;;;;;;;4.78;1.62;;;;;;;;;;4288794;33;20115;-69
2021/11/07 18:00:57;;;;;;;4.32;1.80;;;;;;;;;;4288940;33;20409;-67
2021/11/07 18:03:23;;;;;;;3.42;1.40;;;;;;;;;;4288778;33;20110;-67
2021/11/07 18:05:50;;;;;;;2.42;1.80;;;;;;;;;;4288891;33;20111;-66
2021/11/07 18:08:39;;;;;;;3.45;1.70;;;;;;;;;;4287773;33;20120;-67
2021/11/07 18:11:05;;;;;;;6.82;2.28;;;;;;;;;;4288882;33;20122;-67
2021/11/07 18:13:35;;;;;;;3.60;1.83;;;;;;;;;;4275207;33;20194;-68
2021/11/07 18:16:03;;;;;;;7.78;2.45;;;;;;;;;;4288856;33;20114;-68
2021/11/07 18:18:32;;;;;;;6.65;2.50;;;;;;;;;;4275279;33;20100;-68
2021/11/07 18:20:58;;;;;;;3.70;1.50;;;;;;;;;;4289046;33;20116;-68
2021/11/07 18:23:31;;;;;;;4.18;1.90;;;;;;;;;;4288789;33;20115;-69
2021/11/07 18:26:01;;;;;;;3.12;2.00;;;;;;;;;;4288691;33;20444;-68
2021/11/07 18:28:27;;;;;;;4.70;2.28;;;;;;;;;;4288517;33;20096;-67